sensor_id;sensor_type;location;lat;lon;timestamp;pressure;altitude;pressure_sealevel;temperature;humidity
40794;BME280;26502;51.886;15.604;2023-02-28T00:03:00;102216.68;;;-0.05;69.58
40794;BME280;26502;51.886;15.604;2023-02-28T00:08:07;102214.80;;;-0.04;69.59
40794;BME280;26502;51.886;15.604;2023-02-28T00:13:13;102210.12;;;-0.18;69.22
40794;BME280;26502;51.886;15.604;2023-02-28T00:18:20;102213.41;;;-0.33;69.46
40794;BME280;26502;51.886;15.604;2023-02-28T00:23:26;102211.33;;;-0.28;69.67
40794;BME280;26502;51.886;15.604;2023-02-28T00:28:35;102208.98;;;-0.20;69.61
40794;BME280;26502;51.886;15.604;2023-02-28T00:33:41;102220.46;;;-0.21;69.55
40794;BME280;26502;51.886;15.604;2023-02-28T00:38:48;102219.10;;;-0.21;69.18
40794;BME280;26502;51.886;15.604;2023-02-28T00:43:54;102221.36;;;-0.16;69.56
40794;BME280;26502;51.886;15.604;2023-02-28T00:49:00;102223.80;;;-0.06;69.51
40794;BME280;26502;51.886;15.604;2023-02-28T00:54:07;102221.21;;;-0.15;69.42
40794;BME280;26502;51.886;15.604;2023-02-28T00:59:13;102217.41;;;-0.14;69.71
40794;BME280;26502;51.886;15.604;2023-02-28T01:04:20;102216.35;;;-0.09;69.81
40794;BME280;26502;51.886;15.604;2023-02-28T01:09:27;102219.89;;;-0.08;69.89
40794;BME280;26502;51.886;15.604;2023-02-28T01:14:33;102217.29;;;-0.08;69.83
40794;BME280;26502;51.886;15.604;2023-02-28T01:19:40;102215.32;;;-0.04;69.80
40794;BME280;26502;51.886;15.604;2023-02-28T01:24:49;102214.14;;;0.02;69.79
40794;BME280;26502;51.886;15.604;2023-02-28T01:29:55;102215.72;;;0.07;69.67
40794;BME280;26502;51.886;15.604;2023-02-28T01:35:01;102210.05;;;0.10;69.78
40794;BME280;26502;51.886;15.604;2023-02-28T01:40:10;102211.02;;;0.08;69.71
40794;BME280;26502;51.886;15.604;2023-02-28T01:45:23;102211.62;;;0.05;69.80
40794;BME280;26502;51.886;15.604;2023-02-28T01:50:33;102209.73;;;0.06;70.02
40794;BME280;26502;51.886;15.604;2023-02-28T01:55:45;102200.13;;;0.06;69.85
40794;BME280;26502;51.886;15.604;2023-02-28T02:00:52;102196.23;;;-0.16;69.85
40794;BME280;26502;51.886;15.604;2023-02-28T02:05:59;102192.09;;;-0.19;70.03
40794;BME280;26502;51.886;15.604;2023-02-28T02:11:08;102191.91;;;-0.14;70.12
40794;BME280;26502;51.886;15.604;2023-02-28T02:16:26;102189.20;;;-0.12;70.19
40794;BME280;26502;51.886;15.604;2023-02-28T02:27:19;102179.34;;;-0.19;70.35
40794;BME280;26502;51.886;15.604;2023-02-28T02:32:56;102180.52;;;-0.15;70.34
40794;BME280;26502;51.886;15.604;2023-02-28T02:38:13;102176.20;;;-0.14;70.48
40794;BME280;26502;51.886;15.604;2023-02-28T02:43:28;102175.30;;;-0.05;70.58
40794;BME280;26502;51.886;15.604;2023-02-28T02:48:38;102174.98;;;-0.04;70.63
40794;BME280;26502;51.886;15.604;2023-02-28T02:53:49;102180.26;;;-0.13;70.64
40794;BME280;26502;51.886;15.604;2023-02-28T02:59:01;102179.34;;;-0.19;70.75
40794;BME280;26502;51.886;15.604;2023-02-28T03:04:20;102180.04;;;-0.29;70.79
40794;BME280;26502;51.886;15.604;2023-02-28T03:09:27;102181.92;;;-0.30;70.88
40794;BME280;26502;51.886;15.604;2023-02-28T03:14:42;102181.64;;;-0.33;70.87
40794;BME280;26502;51.886;15.604;2023-02-28T03:19:59;102187.12;;;-0.36;70.74
40794;BME280;26502;51.886;15.604;2023-02-28T03:25:16;102189.84;;;-0.33;70.80
40794;BME280;26502;51.886;15.604;2023-02-28T03:30:27;102189.34;;;-0.32;70.97
40794;BME280;26502;51.886;15.604;2023-02-28T03:35:38;102186.17;;;-0.28;71.03
40794;BME280;26502;51.886;15.604;2023-02-28T03:40:50;102189.27;;;-0.24;71.10
40794;BME280;26502;51.886;15.604;2023-02-28T03:45:57;102195.55;;;-0.20;71.27
40794;BME280;26502;51.886;15.604;2023-02-28T03:51:12;102199.27;;;-0.18;71.17
40794;BME280;26502;51.886;15.604;2023-02-28T03:56:24;102202.66;;;-0.16;71.31
40794;BME280;26502;51.886;15.604;2023-02-28T04:01:35;102207.59;;;-0.15;71.22
40794;BME280;26502;51.886;15.604;2023-02-28T04:06:44;102209.41;;;-0.18;71.22
40794;BME280;26502;51.886;15.604;2023-02-28T04:11:52;102210.42;;;-0.24;71.15
40794;BME280;26502;51.886;15.604;2023-02-28T04:17:00;102206.48;;;-0.27;71.36
40794;BME280;26502;51.886;15.604;2023-02-28T04:22:07;102214.22;;;-0.30;71.20
40794;BME280;26502;51.886;15.604;2023-02-28T04:27:14;102211.79;;;-0.34;71.36
40794;BME280;26502;51.886;15.604;2023-02-28T04:32:21;102214.27;;;-0.38;71.31
40794;BME280;26502;51.886;15.604;2023-02-28T04:37:27;102217.63;;;-0.41;71.33
40794;BME280;26502;51.886;15.604;2023-02-28T04:42:33;102216.96;;;-0.45;71.27
40794;BME280;26502;51.886;15.604;2023-02-28T04:47:41;102219.48;;;-0.48;71.33
40794;BME280;26502;51.886;15.604;2023-02-28T04:52:47;102220.65;;;-0.45;71.26
40794;BME280;26502;51.886;15.604;2023-02-28T04:57:53;102229.43;;;-0.48;71.11
40794;BME280;26502;51.886;15.604;2023-02-28T08:29:15;102314.68;;;0.49;71.67
40794;BME280;26502;51.886;15.604;2023-02-28T08:34:23;102322.83;;;0.61;70.94
40794;BME280;26502;51.886;15.604;2023-02-28T08:39:30;102323.73;;;0.83;70.62
40794;BME280;26502;51.886;15.604;2023-02-28T08:44:40;102315.86;;;1.09;70.31
40794;BME280;26502;51.886;15.604;2023-02-28T08:49:48;102314.09;;;1.37;69.38
40794;BME280;26502;51.886;15.604;2023-02-28T08:54:55;102312.88;;;1.53;69.21
40794;BME280;26502;51.886;15.604;2023-02-28T09:00:03;102320.49;;;1.68;68.90
40794;BME280;26502;51.886;15.604;2023-02-28T09:05:12;102324.52;;;1.85;68.43
40794;BME280;26502;51.886;15.604;2023-02-28T09:10:20;102324.61;;;1.94;67.84
40794;BME280;26502;51.886;15.604;2023-02-28T09:15:27;102326.59;;;2.08;67.57
40794;BME280;26502;51.886;15.604;2023-02-28T09:20:34;102327.34;;;2.16;67.16
40794;BME280;26502;51.886;15.604;2023-02-28T09:25:49;102326.73;;;2.25;67.40
40794;BME280;26502;51.886;15.604;2023-02-28T09:30:57;102324.09;;;2.44;67.07
40794;BME280;26502;51.886;15.604;2023-02-28T09:36:06;102321.86;;;2.73;67.18
40794;BME280;26502;51.886;15.604;2023-02-28T09:41:15;102318.78;;;2.82;66.42
40794;BME280;26502;51.886;15.604;2023-02-28T09:46:29;102318.59;;;2.96;66.48
40794;BME280;26502;51.886;15.604;2023-02-28T09:51:48;102313.30;;;3.08;65.77
40794;BME280;26502;51.886;15.604;2023-02-28T09:56:59;102316.23;;;3.20;65.23
40794;BME280;26502;51.886;15.604;2023-02-28T10:02:19;102316.41;;;3.21;65.47
40794;BME280;26502;51.886;15.604;2023-02-28T10:07:45;102316.11;;;3.38;65.16
40794;BME280;26502;51.886;15.604;2023-02-28T10:13:01;102310.90;;;3.48;64.96
40794;BME280;26502;51.886;15.604;2023-02-28T10:18:16;102305.60;;;3.63;64.33
40794;BME280;26502;51.886;15.604;2023-02-28T10:23:28;102305.89;;;3.75;64.57
40794;BME280;26502;51.886;15.604;2023-02-28T10:28:38;102309.10;;;4.03;64.46
40794;BME280;26502;51.886;15.604;2023-02-28T10:33:46;102312.44;;;3.78;63.84
40794;BME280;26502;51.886;15.604;2023-02-28T10:38:53;102305.84;;;3.65;63.65
40794;BME280;26502;51.886;15.604;2023-02-28T10:44:17;102302.77;;;3.86;63.97
40794;BME280;26502;51.886;15.604;2023-02-28T10:49:27;102304.04;;;4.04;63.74
40794;BME280;26502;51.886;15.604;2023-02-28T10:54:35;102300.11;;;4.19;63.39
40794;BME280;26502;51.886;15.604;2023-02-28T10:59:46;102308.22;;;4.29;62.88
40794;BME280;26502;51.886;15.604;2023-02-28T11:04:56;102300.48;;;4.47;62.89
40794;BME280;26502;51.886;15.604;2023-02-28T11:10:03;102292.89;;;4.55;61.94
40794;BME280;26502;51.886;15.604;2023-02-28T11:15:23;102295.60;;;4.50;61.86
40794;BME280;26502;51.886;15.604;2023-02-28T11:20:32;102290.59;;;4.65;61.95
40794;BME280;26502;51.886;15.604;2023-02-28T11:25:40;102289.92;;;5.09;61.94
40794;BME280;26502;51.886;15.604;2023-02-28T11:31:01;102279.19;;;5.56;61.66
40794;BME280;26502;51.886;15.604;2023-02-28T11:36:14;102278.16;;;5.98;61.25
40794;BME280;26502;51.886;15.604;2023-02-28T11:41:41;102271.47;;;6.30;60.94
40794;BME280;26502;51.886;15.604;2023-02-28T11:46:58;102259.46;;;6.46;60.49
40794;BME280;26502;51.886;15.604;2023-02-28T11:52:19;102255.57;;;6.63;60.29
40794;BME280;26502;51.886;15.604;2023-02-28T11:57:35;102250.91;;;6.75;59.74
40794;BME280;26502;51.886;15.604;2023-02-28T12:02:55;102247.03;;;6.76;59.50
40794;BME280;26502;51.886;15.604;2023-02-28T12:08:15;102240.48;;;6.94;58.87
40794;BME280;26502;51.886;15.604;2023-02-28T12:13:32;102231.27;;;6.90;58.83
40794;BME280;26502;51.886;15.604;2023-02-28T12:18:52;102229.70;;;6.95;58.52
40794;BME280;26502;51.886;15.604;2023-02-28T12:24:14;102237.35;;;6.58;58.15
40794;BME280;26502;51.886;15.604;2023-02-28T12:29:28;102230.73;;;6.50;57.92
40794;BME280;26502;51.886;15.604;2023-02-28T12:34:38;102226.52;;;6.51;57.81
40794;BME280;26502;51.886;15.604;2023-02-28T12:39:48;102222.14;;;6.55;57.48
40794;BME280;26502;51.886;15.604;2023-02-28T12:44:59;102220.14;;;6.50;57.49
40794;BME280;26502;51.886;15.604;2023-02-28T12:50:10;102210.71;;;6.61;57.33
40794;BME280;26502;51.886;15.604;2023-02-28T12:55:22;102196.25;;;6.62;57.10
40794;BME280;26502;51.886;15.604;2023-02-28T13:00:35;102191.11;;;6.59;56.71
40794;BME280;26502;51.886;15.604;2023-02-28T13:06:13;102177.98;;;6.73;56.28
40794;BME280;26502;51.886;15.604;2023-02-28T13:11:29;102173.08;;;6.81;56.42
40794;BME280;26502;51.886;15.604;2023-02-28T13:17:11;102177.14;;;7.07;56.37
40794;BME280;26502;51.886;15.604;2023-02-28T13:22:22;102175.98;;;7.22;56.12
40794;BME280;26502;51.886;15.604;2023-02-28T13:27:42;102182.02;;;6.96;55.27
40794;BME280;26502;51.886;15.604;2023-02-28T13:33:25;102183.92;;;6.91;55.36
40794;BME280;26502;51.886;15.604;2023-02-28T13:38:41;102180.16;;;7.09;55.35
40794;BME280;26502;51.886;15.604;2023-02-28T13:44:05;102177.96;;;7.27;54.96
40794;BME280;26502;51.886;15.604;2023-02-28T13:49:27;102179.12;;;7.46;55.09
40794;BME280;26502;51.886;15.604;2023-02-28T13:54:42;102168.04;;;7.24;54.97
40794;BME280;26502;51.886;15.604;2023-02-28T14:00:02;102159.66;;;7.43;55.09
40794;BME280;26502;51.886;15.604;2023-02-28T14:05:17;102156.36;;;7.57;54.67
40794;BME280;26502;51.886;15.604;2023-02-28T14:10:29;102152.38;;;7.38;54.41
40794;BME280;26502;51.886;15.604;2023-02-28T14:15:45;102156.27;;;7.35;54.30
40794;BME280;26502;51.886;15.604;2023-02-28T14:20:55;102151.83;;;7.29;54.08
40794;BME280;26502;51.886;15.604;2023-02-28T14:26:06;102148.98;;;7.28;53.87
40794;BME280;26502;51.886;15.604;2023-02-28T14:31:21;102146.77;;;7.46;53.87
40794;BME280;26502;51.886;15.604;2023-02-28T14:36:35;102143.64;;;7.64;53.55
40794;BME280;26502;51.886;15.604;2023-02-28T14:41:43;102135.56;;;7.84;53.58
40794;BME280;26502;51.886;15.604;2023-02-28T14:46:52;102133.48;;;8.01;53.26
40794;BME280;26502;51.886;15.604;2023-02-28T14:52:11;102127.30;;;8.15;53.18
40794;BME280;26502;51.886;15.604;2023-02-28T14:57:25;102129.23;;;8.08;52.99
40794;BME280;26502;51.886;15.604;2023-02-28T15:02:35;102129.77;;;7.93;52.86
40794;BME280;26502;51.886;15.604;2023-02-28T15:07:40;102140.14;;;7.75;52.69
40794;BME280;26502;51.886;15.604;2023-02-28T15:12:51;102138.52;;;7.61;52.41
40794;BME280;26502;51.886;15.604;2023-02-28T15:18:00;102140.05;;;7.45;52.53
40794;BME280;26502;51.886;15.604;2023-02-28T15:23:10;102135.92;;;7.34;52.44
40794;BME280;26502;51.886;15.604;2023-02-28T15:28:19;102138.21;;;7.28;52.40
40794;BME280;26502;51.886;15.604;2023-02-28T15:33:28;102131.94;;;7.09;52.15
40794;BME280;26502;51.886;15.604;2023-02-28T15:38:35;102125.45;;;6.88;52.08
40794;BME280;26502;51.886;15.604;2023-02-28T15:43:41;102116.27;;;6.60;52.05
40794;BME280;26502;51.886;15.604;2023-02-28T15:48:52;102112.46;;;6.24;52.18
40794;BME280;26502;51.886;15.604;2023-02-28T15:54:02;102116.95;;;5.96;52.53
40794;BME280;26502;51.886;15.604;2023-02-28T15:59:15;102116.31;;;5.70;52.94
40794;BME280;26502;51.886;15.604;2023-02-28T16:04:22;102120.73;;;5.40;53.10
40794;BME280;26502;51.886;15.604;2023-02-28T16:09:34;102129.72;;;5.12;53.19
40794;BME280;26502;51.886;15.604;2023-02-28T16:14:42;102126.36;;;4.86;53.51
40794;BME280;26502;51.886;15.604;2023-02-28T16:19:50;102125.13;;;4.61;53.88
40794;BME280;26502;51.886;15.604;2023-02-28T16:24:56;102129.50;;;4.27;54.03
40794;BME280;26502;51.886;15.604;2023-02-28T16:30:04;102130.55;;;3.96;54.09
40794;BME280;26502;51.886;15.604;2023-02-28T16:35:12;102136.55;;;3.69;54.63
40794;BME280;26502;51.886;15.604;2023-02-28T16:40:22;102142.41;;;3.64;54.63
40794;BME280;26502;51.886;15.604;2023-02-28T16:45:30;102148.58;;;3.46;54.96
40794;BME280;26502;51.886;15.604;2023-02-28T16:50:36;102149.25;;;3.28;54.87
40794;BME280;26502;51.886;15.604;2023-02-28T16:55:43;102152.80;;;3.05;54.95
40794;BME280;26502;51.886;15.604;2023-02-28T17:00:49;102155.85;;;2.93;55.29
40794;BME280;26502;51.886;15.604;2023-02-28T17:05:57;102163.87;;;2.90;55.70
40794;BME280;26502;51.886;15.604;2023-02-28T17:11:04;102170.95;;;2.93;55.66
40794;BME280;26502;51.886;15.604;2023-02-28T17:16:17;102171.31;;;2.86;55.90
40794;BME280;26502;51.886;15.604;2023-02-28T17:21:26;102174.72;;;2.74;55.81
40794;BME280;26502;51.886;15.604;2023-02-28T17:26:33;102172.33;;;2.55;55.83
40794;BME280;26502;51.886;15.604;2023-02-28T17:31:39;102177.52;;;2.31;55.76
40794;BME280;26502;51.886;15.604;2023-02-28T17:36:46;102181.29;;;2.01;56.14
40794;BME280;26502;51.886;15.604;2023-02-28T17:41:54;102183.95;;;1.89;56.51
40794;BME280;26502;51.886;15.604;2023-02-28T17:47:01;102186.17;;;1.74;56.23
40794;BME280;26502;51.886;15.604;2023-02-28T17:52:08;102183.96;;;1.64;56.64
40794;BME280;26502;51.886;15.604;2023-02-28T17:57:15;102181.45;;;1.50;56.90
40794;BME280;26502;51.886;15.604;2023-02-28T18:02:21;102183.66;;;1.42;57.05
40794;BME280;26502;51.886;15.604;2023-02-28T18:07:28;102181.27;;;1.19;56.82
40794;BME280;26502;51.886;15.604;2023-02-28T18:12:34;102180.00;;;1.07;57.21
40794;BME280;26502;51.886;15.604;2023-02-28T18:17:41;102180.34;;;1.01;57.43
40794;BME280;26502;51.886;15.604;2023-02-28T18:22:47;102175.11;;;0.96;57.39
40794;BME280;26502;51.886;15.604;2023-02-28T18:27:53;102175.84;;;0.91;57.80
40794;BME280;26502;51.886;15.604;2023-02-28T18:33:03;102180.06;;;0.87;58.03
40794;BME280;26502;51.886;15.604;2023-02-28T18:38:12;102182.33;;;0.86;58.17
40794;BME280;26502;51.886;15.604;2023-02-28T18:43:18;102181.73;;;0.77;57.89
40794;BME280;26502;51.886;15.604;2023-02-28T18:48:26;102169.67;;;0.57;58.13
40794;BME280;26502;51.886;15.604;2023-02-28T18:53:32;102175.02;;;0.44;58.40
40794;BME280;26502;51.886;15.604;2023-02-28T18:58:38;102178.44;;;0.36;58.69
40794;BME280;26502;51.886;15.604;2023-02-28T19:03:46;102183.00;;;0.31;58.91
40794;BME280;26502;51.886;15.604;2023-02-28T19:08:55;102180.76;;;0.27;58.78
40794;BME280;26502;51.886;15.604;2023-02-28T19:14:02;102181.48;;;0.18;58.85
40794;BME280;26502;51.886;15.604;2023-02-28T19:19:09;102184.42;;;0.11;59.09
40794;BME280;26502;51.886;15.604;2023-02-28T19:24:15;102184.56;;;0.11;59.11
40794;BME280;26502;51.886;15.604;2023-02-28T19:29:22;102190.57;;;0.08;59.23
40794;BME280;26502;51.886;15.604;2023-02-28T19:34:29;102193.77;;;-0.01;59.47
40794;BME280;26502;51.886;15.604;2023-02-28T19:39:35;102193.83;;;-0.09;59.56
40794;BME280;26502;51.886;15.604;2023-02-28T19:44:49;102193.20;;;-0.17;59.57
40794;BME280;26502;51.886;15.604;2023-02-28T19:49:55;102198.20;;;-0.43;59.31
40794;BME280;26502;51.886;15.604;2023-02-28T19:55:01;102193.40;;;-0.82;59.74
40794;BME280;26502;51.886;15.604;2023-02-28T20:00:11;102196.63;;;-0.71;60.19
40794;BME280;26502;51.886;15.604;2023-02-28T20:05:18;102188.95;;;-0.66;60.47
40794;BME280;26502;51.886;15.604;2023-02-28T20:10:24;102185.83;;;-0.71;60.56
40794;BME280;26502;51.886;15.604;2023-02-28T20:15:30;102184.05;;;-0.72;60.56
40794;BME280;26502;51.886;15.604;2023-02-28T20:20:37;102180.98;;;-0.74;60.64
40794;BME280;26502;51.886;15.604;2023-02-28T20:25:46;102180.92;;;-0.85;60.52
40794;BME280;26502;51.886;15.604;2023-02-28T20:30:53;102179.39;;;-1.11;60.67
40794;BME280;26502;51.886;15.604;2023-02-28T20:36:00;102175.77;;;-1.27;60.56
40794;BME280;26502;51.886;15.604;2023-02-28T20:41:09;102180.19;;;-1.30;60.97
40794;BME280;26502;51.886;15.604;2023-02-28T20:46:15;102180.02;;;-1.47;60.81
40794;BME280;26502;51.886;15.604;2023-02-28T20:51:22;102185.81;;;-1.80;61.07
40794;BME280;26502;51.886;15.604;2023-02-28T20:56:28;102186.47;;;-1.94;61.47
40794;BME280;26502;51.886;15.604;2023-02-28T21:01:34;102184.35;;;-1.86;61.67
40794;BME280;26502;51.886;15.604;2023-02-28T21:06:41;102190.46;;;-1.78;61.87
40794;BME280;26502;51.886;15.604;2023-02-28T21:11:53;102192.98;;;-1.76;61.94
40794;BME280;26502;51.886;15.604;2023-02-28T21:17:00;102193.17;;;-1.99;61.96
40794;BME280;26502;51.886;15.604;2023-02-28T21:22:06;102193.21;;;-2.02;61.84
40794;BME280;26502;51.886;15.604;2023-02-28T21:27:12;102191.58;;;-2.00;62.09
40794;BME280;26502;51.886;15.604;2023-02-28T21:32:19;102189.02;;;-1.95;61.89
40794;BME280;26502;51.886;15.604;2023-02-28T21:37:25;102190.02;;;-2.24;61.94
40794;BME280;26502;51.886;15.604;2023-02-28T21:42:31;102192.54;;;-2.18;62.46
40794;BME280;26502;51.886;15.604;2023-02-28T21:47:37;102198.14;;;-2.09;62.61
40794;BME280;26502;51.886;15.604;2023-02-28T21:52:44;102208.66;;;-2.04;62.72
40794;BME280;26502;51.886;15.604;2023-02-28T21:57:51;102208.90;;;-2.02;62.70
40794;BME280;26502;51.886;15.604;2023-02-28T22:02:57;102213.35;;;-2.28;62.56
40794;BME280;26502;51.886;15.604;2023-02-28T22:08:06;102209.71;;;-2.47;62.67
40794;BME280;26502;51.886;15.604;2023-02-28T22:13:12;102211.61;;;-2.55;62.69
40794;BME280;26502;51.886;15.604;2023-02-28T22:18:18;102211.65;;;-2.73;62.65
40794;BME280;26502;51.886;15.604;2023-02-28T22:23:24;102213.45;;;-2.94;62.97
40794;BME280;26502;51.886;15.604;2023-02-28T22:28:30;102215.39;;;-2.82;63.21
40794;BME280;26502;51.886;15.604;2023-02-28T22:33:37;102211.79;;;-2.70;63.28
40794;BME280;26502;51.886;15.604;2023-02-28T22:38:45;102214.18;;;-2.67;63.00
40794;BME280;26502;51.886;15.604;2023-02-28T22:43:54;102214.38;;;-2.89;62.97
40794;BME280;26502;51.886;15.604;2023-02-28T22:49:01;102207.97;;;-3.29;63.13
40794;BME280;26502;51.886;15.604;2023-02-28T22:54:08;102209.20;;;-3.29;63.37
40794;BME280;26502;51.886;15.604;2023-02-28T22:59:15;102214.42;;;-3.29;63.34
40794;BME280;26502;51.886;15.604;2023-02-28T23:04:21;102219.86;;;-3.09;63.96
40794;BME280;26502;51.886;15.604;2023-02-28T23:09:29;102216.61;;;-3.04;63.85
40794;BME280;26502;51.886;15.604;2023-02-28T23:14:35;102224.41;;;-2.98;64.14
40794;BME280;26502;51.886;15.604;2023-02-28T23:19:41;102230.73;;;-2.93;64.26
40794;BME280;26502;51.886;15.604;2023-02-28T23:24:47;102231.66;;;-2.98;64.34
40794;BME280;26502;51.886;15.604;2023-02-28T23:29:53;102236.86;;;-2.95;64.32
40794;BME280;26502;51.886;15.604;2023-02-28T23:35:01;102231.70;;;-2.94;64.36
40794;BME280;26502;51.886;15.604;2023-02-28T23:40:11;102232.08;;;-2.97;64.03
40794;BME280;26502;51.886;15.604;2023-02-28T23:45:16;102233.79;;;-3.09;64.09
40794;BME280;26502;51.886;15.604;2023-02-28T23:50:22;102230.10;;;-3.13;64.10
40794;BME280;26502;51.886;15.604;2023-02-28T23:55:28;102232.23;;;-3.12;63.75
